Cincinnati, Ohio
Traffic Map
Current Weather Conditions
Cincinnati, Ohio
Clear
Clear
62°
Feels Like: 62°
Wind Chill: 62° Ceiling: Unl
Heat Index: 62° Visibility: 10mi
Dew Point: 52° Wind: 8mph
Humidity: 70% Direction: 230° (SW)
Pressure: 29.92in Gusts: 0mph
Raw Report DataKLUK 252353Z 23007KT 10SM CLR 17/11 A2992 RMK AO2 SLP130 T01670111 10228 20167 55000
Traffic Incident Summary
Active as of:
Severity:
Category:
InformationThere was an issue retrieving the traffic information for this location. Please try a different location or try again shortly.
Advertisements
Track Severe Weather on mobile